createdAt,value
2023-05-05T00:01:36.676Z,7.10
2023-05-05T00:06:37.658Z,6.30
2023-05-05T00:11:38.668Z,5.30
2023-05-05T00:16:39.825Z,6.30
2023-05-05T00:21:40.820Z,7.30
2023-05-05T00:26:41.853Z,8.10
2023-05-05T00:31:42.964Z,7.30
2023-05-05T00:36:43.996Z,8.60
2023-05-05T00:41:45.021Z,7.30
2023-05-05T00:46:46.182Z,8.20
2023-05-05T00:51:47.266Z,11.40
2023-05-05T00:56:50.153Z,8.70
2023-05-05T01:01:51.437Z,8.80
2023-05-05T01:07:34.054Z,6.80
2023-05-05T01:12:46.042Z,9.50
2023-05-05T01:18:13.197Z,9.50
2023-05-05T01:23:26.530Z,8.90
2023-05-05T01:28:56.015Z,6.60
2023-05-05T01:39:09.648Z,6.40
2023-05-05T01:44:13.985Z,5.70
2023-05-05T01:49:15.669Z,6.10
2023-05-05T01:54:18.575Z,9.50
2023-05-05T01:59:21.027Z,8.00
2023-05-05T02:04:23.582Z,8.10
2023-05-05T02:09:27.613Z,7.60
2023-05-05T02:14:29.141Z,7.70
2023-05-05T02:19:38.103Z,8.80
2023-05-05T02:24:39.152Z,8.70
2023-05-05T02:29:49.654Z,8.30
2023-05-05T02:34:52.758Z,9.60
2023-05-05T02:39:59.575Z,8.40
2023-05-05T02:45:09.343Z,7.80
2023-05-05T02:50:15.091Z,7.30
2023-05-05T02:55:21.961Z,9.00
2023-05-05T03:00:42.090Z,6.50
2023-05-05T03:05:59.982Z,6.90
2023-05-05T03:11:07.080Z,7.30
2023-05-05T03:16:10.885Z,6.70
2023-05-05T03:21:12.482Z,6.60
2023-05-05T03:26:17.806Z,8.90
2023-05-05T03:31:19.129Z,7.50
2023-05-05T03:36:39.104Z,7.50
2023-05-05T03:41:50.447Z,7.30
2023-05-05T03:46:52.687Z,7.40
2023-05-05T03:51:54.150Z,7.70
2023-05-05T03:56:55.614Z,7.60
2023-05-05T04:01:56.715Z,7.90
2023-05-05T04:06:57.984Z,8.40
2023-05-05T04:11:59.343Z,7.80
2023-05-05T04:17:00.647Z,9.10
2023-05-05T04:22:01.951Z,8.40
2023-05-05T04:27:03.933Z,11.40
2023-05-05T04:32:05.854Z,11.70
2023-05-05T04:37:06.943Z,12.00
2023-05-05T04:42:08.776Z,11.10
2023-05-05T04:47:11.471Z,12.30
2023-05-05T04:52:15.282Z,9.90
2023-05-05T04:57:16.397Z,12.70
2023-05-05T05:02:17.766Z,13.70
2023-05-05T05:07:18.869Z,15.30
2023-05-05T05:12:20.438Z,9.00
2023-05-05T05:17:23.085Z,13.10
2023-05-05T05:22:24.202Z,13.80
2023-05-05T05:27:25.406Z,13.20
2023-05-05T05:32:27.241Z,11.70
2023-05-05T05:37:30.310Z,11.20
2023-05-05T05:42:31.523Z,7.40
2023-05-05T05:47:33.268Z,9.30
2023-05-05T05:52:37.825Z,9.50
2023-05-05T05:57:39.602Z,9.20
2023-05-05T06:02:41.772Z,11.20
2023-05-05T06:07:45.749Z,13.50
2023-05-05T06:12:47.384Z,10.60
2023-05-05T06:17:48.694Z,9.20
2023-05-05T06:22:49.839Z,8.60
2023-05-05T06:27:51.629Z,8.70
2023-05-05T06:32:53.592Z,7.10
2023-05-05T06:37:54.616Z,8.90
2023-05-05T06:42:55.868Z,9.80
2023-05-05T06:48:00.953Z,7.80
2023-05-05T06:53:01.998Z,7.60
2023-05-05T06:58:02.961Z,8.80
2023-05-05T07:03:04.195Z,8.20
2023-05-05T07:08:05.860Z,7.50
2023-05-05T07:13:09.786Z,6.10
2023-05-05T07:18:12.660Z,7.10
2023-05-05T07:23:13.729Z,4.80
2023-05-05T07:28:14.820Z,4.20
2023-05-05T07:33:17.761Z,4.70
2023-05-05T07:38:18.802Z,4.90
2023-05-05T07:43:19.858Z,3.80
2023-05-05T07:48:20.935Z,4.90
2023-05-05T07:53:21.946Z,4.90
2023-05-05T07:58:23.007Z,4.70
2023-05-05T08:03:24.317Z,3.80
2023-05-05T08:08:26.260Z,2.80
2023-05-05T08:13:29.551Z,3.30
2023-05-05T08:18:30.697Z,3.10
2023-05-05T08:23:32.956Z,2.60
2023-05-05T08:28:35.692Z,2.80
2023-05-05T08:33:36.700Z,3.00
2023-05-05T08:38:37.695Z,2.30
2023-05-05T08:43:38.950Z,3.20
2023-05-05T08:48:42.614Z,3.30
2023-05-05T08:53:55.748Z,2.80
2023-05-05T08:58:57.095Z,2.90
2023-05-05T09:03:58.657Z,2.80
2023-05-05T09:09:00.658Z,2.40
2023-05-05T09:14:01.690Z,1.90
2023-05-05T09:19:04.159Z,2.10
2023-05-05T09:24:12.217Z,2.90
2023-05-05T09:29:20.330Z,2.10
2023-05-05T09:34:21.456Z,2.20
2023-05-05T09:39:22.560Z,2.40
2023-05-05T09:44:37.189Z,2.60
2023-05-05T09:49:38.434Z,2.10
2023-05-05T09:54:39.615Z,1.70
2023-05-05T10:00:01.705Z,2.30
2023-05-05T10:05:12.052Z,2.00
2023-05-05T10:10:15.492Z,2.00
2023-05-05T10:15:17.081Z,1.70
2023-05-05T10:20:20.439Z,1.90
2023-05-05T10:25:30.295Z,1.90
2023-05-05T10:30:34.592Z,1.80
2023-05-05T10:35:39.648Z,2.00
2023-05-05T10:40:45.151Z,1.70
2023-05-05T10:45:46.355Z,1.80
2023-05-05T10:50:52.985Z,1.90
2023-05-05T10:56:29.489Z,2.20
2023-05-05T11:01:32.338Z,2.30
2023-05-05T11:06:33.601Z,1.90
2023-05-05T11:12:04.516Z,2.20
2023-05-05T11:17:54.983Z,2.00
2023-05-05T11:23:02.257Z,2.00
2023-05-05T11:28:10.804Z,2.10
2023-05-05T11:33:37.461Z,1.70
2023-05-05T11:38:38.443Z,1.90
2023-05-05T11:43:41.034Z,1.80
2023-05-05T11:48:49.445Z,2.10
2023-05-05T11:53:50.485Z,2.40
2023-05-05T11:59:10.542Z,2.10
2023-05-05T12:04:13.078Z,2.80
2023-05-05T12:09:18.375Z,1.90
2023-05-05T12:14:20.043Z,2.00
2023-05-05T12:19:21.379Z,2.00
2023-05-05T12:24:22.441Z,2.20
2023-05-05T12:29:28.421Z,1.50
2023-05-05T12:34:30.614Z,2.10
2023-05-05T12:39:38.123Z,2.20
2023-05-05T12:44:40.126Z,1.90
2023-05-05T12:49:48.760Z,1.80
2023-05-05T12:54:56.380Z,1.60
2023-05-05T12:59:57.641Z,1.90
2023-05-05T13:04:58.664Z,1.60
2023-05-05T13:10:10.548Z,2.10
2023-05-05T13:15:11.826Z,1.80
2023-05-05T13:20:13.343Z,1.80
2023-05-05T13:25:14.480Z,1.80
2023-05-05T13:30:15.487Z,1.50
2023-05-05T13:35:16.811Z,1.50
2023-05-05T13:40:17.920Z,2.10
2023-05-05T13:45:19.062Z,2.30
2023-05-05T13:50:20.397Z,1.70
2023-05-05T13:55:21.475Z,1.50
2023-05-05T14:00:22.658Z,2.20
2023-05-05T14:05:23.647Z,1.80
2023-05-05T14:10:25.557Z,1.70
2023-05-05T14:15:26.987Z,1.60
2023-05-05T14:20:28.258Z,1.80
2023-05-05T14:25:30.486Z,1.50
2023-05-05T14:30:31.830Z,1.90
2023-05-05T14:35:32.837Z,1.90
2023-05-05T14:40:33.837Z,1.60
2023-05-05T14:45:34.817Z,1.80
2023-05-05T14:50:35.748Z,1.70
2023-05-05T14:55:37.201Z,1.80
2023-05-05T15:00:38.304Z,1.70
2023-05-05T15:05:39.401Z,1.90
2023-05-05T15:10:40.512Z,2.00
2023-05-05T15:15:41.678Z,1.60
2023-05-05T15:20:42.849Z,1.60
2023-05-05T15:25:43.971Z,3.00
2023-05-05T15:30:45.130Z,2.10
2023-05-05T15:35:46.159Z,2.00
2023-05-05T15:40:49.538Z,1.90
2023-05-05T15:45:53.254Z,1.70
2023-05-05T15:50:54.230Z,2.10
2023-05-05T15:55:55.223Z,2.20
2023-05-05T16:00:56.336Z,2.50
2023-05-05T16:05:57.399Z,2.60
2023-05-05T16:10:58.452Z,2.10
2023-05-05T16:15:59.547Z,1.70
2023-05-05T16:21:00.649Z,2.40
2023-05-05T16:26:03.358Z,2.00
2023-05-05T16:31:04.828Z,2.40
2023-05-05T16:36:14.683Z,1.80
2023-05-05T16:41:15.717Z,3.20
2023-05-05T16:46:16.867Z,2.70
2023-05-05T16:51:17.906Z,2.70
2023-05-05T16:56:18.880Z,2.70
2023-05-05T17:01:19.957Z,2.10
2023-05-05T17:06:21.298Z,2.70
2023-05-05T17:11:22.344Z,2.70
2023-05-05T17:16:23.391Z,1.80
2023-05-05T17:21:24.563Z,2.00
2023-05-05T17:26:25.545Z,2.30
2023-05-05T17:31:26.573Z,2.20
2023-05-05T17:36:27.739Z,2.00
2023-05-05T17:41:28.750Z,2.30
2023-05-05T17:46:29.936Z,2.70
2023-05-05T17:51:31.515Z,3.50
2023-05-05T17:56:34.042Z,3.10
2023-05-05T18:01:35.219Z,3.00
2023-05-05T18:06:36.191Z,4.00
2023-05-05T18:11:37.185Z,3.40
2023-05-05T18:16:38.259Z,3.30
2023-05-05T18:21:39.264Z,3.70
2023-05-05T18:26:40.749Z,3.60
2023-05-05T18:31:44.389Z,3.20
2023-05-05T18:36:46.273Z,3.70
2023-05-05T18:41:47.278Z,3.50
2023-05-05T18:46:48.296Z,4.60
2023-05-05T18:51:49.517Z,5.80
2023-05-05T18:56:50.481Z,5.50
2023-05-05T19:01:51.615Z,4.70
2023-05-05T19:06:52.855Z,5.00
2023-05-05T19:11:53.886Z,4.30
2023-05-05T19:16:55.273Z,4.00
2023-05-05T19:21:57.350Z,4.50
2023-05-05T19:26:58.501Z,5.00
2023-05-05T19:31:59.572Z,4.90
2023-05-05T19:37:00.687Z,5.60
2023-05-05T19:42:01.858Z,4.60
2023-05-05T19:47:04.400Z,5.30
2023-05-05T19:52:05.448Z,4.80
2023-05-05T19:57:06.606Z,6.10
2023-05-05T20:02:11.645Z,4.50
2023-05-05T20:07:12.693Z,5.00
2023-05-05T20:12:13.891Z,4.40
2023-05-05T20:17:19.181Z,3.60
2023-05-05T20:22:20.511Z,3.80
2023-05-05T20:27:21.582Z,4.10
2023-05-05T20:32:22.546Z,4.10
2023-05-05T20:37:26.238Z,4.80
2023-05-05T20:42:28.800Z,5.50
2023-05-05T20:47:30.017Z,6.30
2023-05-05T20:52:33.091Z,7.70
2023-05-05T20:57:34.210Z,8.00
2023-05-05T21:02:35.495Z,7.80
2023-05-05T21:07:37.368Z,6.20
2023-05-05T21:12:40.264Z,4.70
2023-05-05T21:17:45.715Z,4.50
2023-05-05T21:22:46.835Z,4.10
2023-05-05T21:27:48.343Z,4.40
2023-05-05T21:32:50.548Z,3.80
2023-05-05T21:37:51.642Z,3.40
2023-05-05T21:42:53.202Z,4.50
2023-05-05T21:47:58.901Z,3.70
2023-05-05T21:53:01.989Z,3.30
2023-05-05T21:58:02.937Z,3.70
2023-05-05T22:03:05.781Z,3.50
2023-05-05T22:13:09.710Z,2.80
2023-05-05T22:18:10.740Z,2.90
2023-05-05T22:23:13.217Z,4.30
2023-05-05T22:28:24.267Z,3.50
2023-05-05T22:33:26.675Z,4.00
2023-05-05T22:38:28.331Z,3.80
2023-05-05T22:43:30.002Z,3.80
2023-05-05T22:48:31.738Z,3.00
2023-05-05T22:53:33.389Z,3.00
2023-05-05T22:58:36.039Z,3.50
2023-05-05T23:03:38.197Z,3.20
2023-05-05T23:08:41.950Z,3.30
2023-05-05T23:13:49.452Z,2.60
2023-05-05T23:18:51.172Z,3.70
2023-05-05T23:23:55.010Z,3.50
2023-05-05T23:28:56.897Z,3.60
2023-05-05T23:33:58.514Z,3.80
2023-05-05T23:39:01.766Z,4.10
2023-05-05T23:44:23.582Z,3.90
2023-05-05T23:49:26.823Z,4.80
2023-05-05T23:54:28.675Z,4.70
2023-05-05T23:59:30.683Z,5.50
